Time;durP1;ratioP1;P1;durP2;ratioP2;P2;SDS_P1;SDS_P2;PMS_P1;PMS_P2;Temp;Humidity;BMP_temperature;BMP_pressure;BME280_temperature;BME280_humidity;BME280_pressure;Samples;Min_cycle;Max_cycle;Signal;HPM_P1;HPM_P2
2023/09/23 00:01:05;;;;;;;;;;;;;;;15.94;84.41;100243.66;4227072;28;20031;-73
2023/09/23 00:03:09;;;;;;;;;;;;;;;15.93;84.28;100240.09;4228026;28;20371;-72
2023/09/23 00:05:11;;;;;;;;;;;;;;;15.93;84.16;100245.56;4228092;28;20014;-71
2023/09/23 00:07:13;;;;;;;;;;;;;;;15.91;84.28;100252.25;4228861;28;20027;-72
2023/09/23 00:09:17;;;;;;;;;;;;;;;15.89;84.26;100255.22;4229375;28;20030;-72
2023/09/23 00:11:19;;;;;;;;;;;;;;;15.89;84.49;100249.75;4229024;28;20026;-71
2023/09/23 00:13:21;;;;;;;;;;;;;;;15.87;84.72;100260.06;4227823;28;20027;-72
2023/09/23 00:15:25;;;;;;;;;;;;;;;15.84;84.71;100263.22;4228776;28;20011;-73
2023/09/23 00:17:27;;;;;;;;;;;;;;;15.83;84.44;100267.00;4229092;28;20043;-71
2023/09/23 00:19:29;;;;;;;;;;;;;;;15.80;84.47;100268.28;4228174;28;20011;-71
2023/09/23 00:21:32;;;;;;;;;;;;;;;15.81;84.57;100269.94;4228968;28;20054;-72
2023/09/23 00:23:34;;;;;;;;;;;;;;;15.81;84.41;100267.22;4224837;28;20425;-72
2023/09/23 00:25:37;;;;;;;;;;;;;;;15.80;84.55;100273.75;4227664;28;20031;-72
2023/09/23 00:27:39;;;;;;;;;;;;;;;15.78;84.48;100275.00;4227453;28;20019;-72
2023/09/23 00:29:44;;;;;;;;;;;;;;;15.77;84.30;100273.38;4218545;28;20011;-73
2023/09/23 00:31:45;;;;;;;;;;;;;;;15.73;84.85;100281.09;4226783;28;20452;-72
2023/09/23 00:33:49;;;;;;;;;;;;;;;15.72;84.65;100273.16;4225560;28;19969;-72
2023/09/23 00:35:52;;;;;;;;;;;;;;;15.70;84.73;100278.00;4218491;28;20034;-72
2023/09/23 00:37:55;;;;;;;;;;;;;;;15.66;85.19;100273.00;4225850;28;20046;-72
2023/09/23 00:39:57;;;;;;;;;;;;;;;15.65;85.17;100267.75;4228891;28;20525;-71
2023/09/23 00:42:01;;;;;;;;;;;;;;;15.64;85.00;100264.22;4221585;28;20830;-73
2023/09/23 00:44:04;;;;;;;;;;;;;;;15.64;84.83;100269.66;4212779;28;20478;-72
2023/09/23 00:46:06;;;;;;;;;;;;;;;15.61;85.17;100275.56;4231557;28;20011;-72
2023/09/23 00:48:08;;;;;;;;;;;;;;;15.58;85.22;100264.25;4230026;28;20030;-72
2023/09/23 00:50:18;;;;;;;;;;;;;;;15.58;85.08;100261.53;4230503;27;20034;-72
2023/09/23 00:52:20;;;;;;;;;;;;;;;15.58;84.94;100253.38;4231030;28;20018;-72
2023/09/23 00:54:22;;;;;;;;;;;;;;;15.58;84.86;100254.22;4230134;28;20015;-71
2023/09/23 00:56:24;;;;;;;;;;;;;;;15.56;85.11;100245.41;4230489;28;20020;-73
2023/09/23 00:58:26;;;;;;;;;;;;;;;15.58;84.93;100239.75;4220867;28;20023;-72
2023/09/23 01:00:30;;;;;;;;;;;;;;;15.59;84.53;100238.72;4222827;28;20583;-71
2023/09/23 01:02:31;;;;;;;;;;;;;;;15.59;84.69;100246.88;4221096;28;20022;-72
2023/09/23 01:04:35;;;;;;;;;;;;;;;15.57;84.54;100241.66;4222391;28;19931;-70
2023/09/23 01:06:38;;;;;;;;;;;;;;;15.55;84.53;100237.47;4228626;28;20006;-71
2023/09/23 01:08:42;;;;;;;;;;;;;;;15.56;84.51;100239.97;4229435;28;20453;-71
2023/09/23 01:10:44;;;;;;;;;;;;;;;15.55;84.30;100242.91;4227128;28;20024;-71
2023/09/23 01:12:47;;;;;;;;;;;;;;;15.58;84.38;100242.47;4228450;28;20457;-72
2023/09/23 01:14:51;;;;;;;;;;;;;;;15.56;84.39;100241.88;4230397;28;20038;-71
2023/09/23 01:16:53;;;;;;;;;;;;;;;15.54;84.36;100242.09;4230159;28;20011;-72
2023/09/23 01:18:55;;;;;;;;;;;;;;;15.53;84.34;100243.13;4230836;28;20050;-72
2023/09/23 01:21:00;;;;;;;;;;;;;;;15.54;84.24;100244.00;4231050;28;20060;-73
2023/09/23 01:23:05;;;;;;;;;;;;;;;15.54;84.11;100241.28;4229880;28;20024;-72
2023/09/23 01:25:07;;;;;;;;;;;;;;;15.53;84.25;100237.69;4231160;28;20433;-71
2023/09/23 01:27:09;;;;;;;;;;;;;;;15.52;84.17;100240.63;4230970;28;20059;-72
2023/09/23 01:29:11;;;;;;;;;;;;;;;15.49;84.05;100260.97;4229333;28;20023;-72
2023/09/23 01:31:13;;;;;;;;;;;;;;;15.49;84.09;100263.72;4220211;28;20024;-71
2023/09/23 01:33:15;;;;;;;;;;;;;;;15.44;84.38;100267.09;4237786;27;20367;-71
2023/09/23 01:35:17;;;;;;;;;;;;;;;15.43;84.41;100268.13;4229869;28;20018;-71
2023/09/23 01:37:19;;;;;;;;;;;;;;;15.45;84.39;100262.47;4228729;28;20030;-72
2023/09/23 01:39:23;;;;;;;;;;;;;;;15.43;84.34;100270.03;4228484;28;20461;-72
2023/09/23 01:41:25;;;;;;;;;;;;;;;15.41;84.33;100262.09;4229862;28;20015;-71
2023/09/23 01:43:27;;;;;;;;;;;;;;;15.40;84.06;100274.00;4228685;28;20394;-71
2023/09/23 01:45:29;;;;;;;;;;;;;;;15.37;84.66;100268.19;4230101;28;20398;-72
2023/09/23 01:47:31;;;;;;;;;;;;;;;15.37;84.59;100262.75;4220414;28;20006;-72
2023/09/23 01:49:33;;;;;;;;;;;;;;;15.36;84.48;100255.63;4230030;28;20019;-73
2023/09/23 01:51:35;;;;;;;;;;;;;;;15.37;84.45;100258.13;4228106;28;20449;-72
2023/09/23 01:53:37;;;;;;;;;;;;;;;15.39;84.09;100261.47;4229687;28;20039;-72
2023/09/23 01:55:42;;;;;;;;;;;;;;;15.40;83.97;100263.13;4229757;28;20035;-72
2023/09/23 01:57:44;;;;;;;;;;;;;;;15.36;84.09;100261.06;4210921;28;19963;-70
2023/09/23 01:59:46;;;;;;;;;;;;;;;15.35;84.21;100259.44;4228533;28;20007;-71
2023/09/23 02:01:48;;;;;;;;;;;;;;;15.31;84.01;100257.16;4225857;28;20035;-71
2023/09/23 02:03:51;;;;;;;;;;;;;;;15.30;84.20;100260.09;4229020;28;20346;-72
2023/09/23 02:05:53;;;;;;;;;;;;;;;15.30;84.24;100274.50;4230234;28;19927;-73
2023/09/23 02:07:55;;;;;;;;;;;;;;;15.28;84.32;100281.22;4228363;28;20026;-72
2023/09/23 02:09:57;;;;;;;;;;;;;;;15.28;84.18;100282.06;4220296;28;20513;-72
2023/09/23 02:12:00;;;;;;;;;;;;;;;15.26;84.25;100284.16;4219360;28;20019;-72
2023/09/23 02:14:04;;;;;;;;;;;;;;;15.26;84.03;100277.88;4230065;28;20031;-72
2023/09/23 02:16:06;;;;;;;;;;;;;;;15.28;84.00;100286.66;4226211;28;20006;-72
2023/09/23 02:18:08;;;;;;;;;;;;;;;15.27;84.32;100288.56;4221933;28;20030;-72
2023/09/23 02:20:11;;;;;;;;;;;;;;;15.24;84.15;100286.28;4220224;28;20388;-72
2023/09/23 02:22:13;;;;;;;;;;;;;;;15.22;84.24;100284.81;4229358;28;20034;-73
2023/09/23 02:24:15;;;;;;;;;;;;;;;15.21;84.30;100294.03;4229065;28;20410;-72
2023/09/23 02:26:17;;;;;;;;;;;;;;;15.20;84.21;100286.91;4220815;28;19957;-72
2023/09/23 02:28:20;;;;;;;;;;;;;;;15.14;84.41;100292.19;4210350;28;20415;-72
2023/09/23 02:30:21;;;;;;;;;;;;;;;15.13;84.49;100298.66;4227874;28;20022;-72
2023/09/23 02:32:23;;;;;;;;;;;;;;;15.14;84.53;100296.81;4225382;28;20369;-73
2023/09/23 02:34:25;;;;;;;;;;;;;;;15.09;84.39;100308.34;4227702;28;20015;-74
2023/09/23 02:36:27;;;;;;;;;;;;;;;15.07;84.39;100307.69;4229942;28;20007;-73
2023/09/23 02:38:31;;;;;;;;;;;;;;;15.03;84.92;100300.19;4229643;28;20018;-73
2023/09/23 02:40:33;;;;;;;;;;;;;;;15.01;84.69;100300.41;4219896;28;20032;-73
2023/09/23 02:42:35;;;;;;;;;;;;;;;14.99;84.80;100298.97;4227095;28;20034;-73
2023/09/23 02:44:38;;;;;;;;;;;;;;;14.96;84.95;100298.34;4228691;28;20506;-72
2023/09/23 02:46:42;;;;;;;;;;;;;;;14.98;85.05;100300.84;4220200;28;19923;-72
2023/09/23 02:48:44;;;;;;;;;;;;;;;14.95;84.84;100304.00;4229976;28;20297;-73
2023/09/23 02:50:45;;;;;;;;;;;;;;;14.88;85.24;100312.19;4227223;28;20018;-72
2023/09/23 02:52:48;;;;;;;;;;;;;;;14.88;84.93;100314.09;4229111;28;20014;-73
2023/09/23 02:54:51;;;;;;;;;;;;;;;14.87;85.10;100318.66;4219339;28;20019;-72
2023/09/23 02:56:53;;;;;;;;;;;;;;;14.84;84.83;100313.66;4220083;28;20019;-72
2023/09/23 02:58:56;;;;;;;;;;;;;;;14.80;84.81;100317.06;4229674;28;20383;-72
2023/09/23 03:01:01;;;;;;;;;;;;;;;14.77;84.99;100326.47;4226533;28;20026;-73
2023/09/23 03:03:08;;;;;;;;;;;;;;;14.73;85.22;100323.34;4226155;28;20465;-72
2023/09/23 03:05:15;;;;;;;;;;;;;;;14.72;85.00;100329.81;4237368;27;20018;-72
2023/09/23 03:07:18;;;;;;;;;;;;;;;14.69;85.14;100335.69;4228942;28;20409;-73
2023/09/23 03:09:23;;;;;;;;;;;;;;;14.68;85.08;100347.59;4228724;28;20034;-72
2023/09/23 03:11:26;;;;;;;;;;;;;;;14.66;85.05;100340.72;4219612;28;20394;-73
2023/09/23 03:13:29;;;;;;;;;;;;;;;14.64;85.16;100346.38;4229224;28;20448;-73
2023/09/23 03:15:36;;;;;;;;;;;;;;;14.64;85.00;100340.94;4236602;27;20038;-72
2023/09/23 03:17:39;;;;;;;;;;;;;;;14.65;84.86;100344.47;4227585;28;20046;-72
2023/09/23 03:19:41;;;;;;;;;;;;;;;14.64;84.91;100351.81;4229056;28;20018;-73
2023/09/23 03:21:45;;;;;;;;;;;;;;;14.62;84.71;100348.44;4228733;28;20058;-73
2023/09/23 03:23:48;;;;;;;;;;;;;;;14.64;84.72;100348.25;4219009;28;20031;-73
2023/09/23 03:25:51;;;;;;;;;;;;;;;14.59;84.97;100348.84;4220181;28;20031;-73
2023/09/23 03:27:53;;;;;;;;;;;;;;;14.59;84.71;100355.13;4219651;28;20473;-73
2023/09/23 03:29:57;;;;;;;;;;;;;;;14.55;84.64;100358.50;4226484;28;20018;-73
2023/09/23 03:32:00;;;;;;;;;;;;;;;14.55;84.68;100359.31;4218698;28;20018;-73
2023/09/23 03:34:03;;;;;;;;;;;;;;;14.53;84.56;100361.41;4226836;28;20022;-73
2023/09/23 03:36:13;;;;;;;;;;;;;;;14.50;84.82;100356.41;4228429;28;20018;-74
2023/09/23 03:38:16;;;;;;;;;;;;;;;14.52;84.70;100353.47;4228863;28;20019;-73
2023/09/23 03:40:24;;;;;;;;;;;;;;;14.51;84.62;100351.78;4226759;28;20457;-73
2023/09/23 03:42:26;;;;;;;;;;;;;;;14.44;84.85;100357.25;4228203;28;20015;-72
2023/09/23 03:44:28;;;;;;;;;;;;;;;14.46;84.62;100357.88;4227091;28;20034;-74
2023/09/23 03:46:30;;;;;;;;;;;;;;;14.43;84.77;100355.56;4227470;28;20015;-73
2023/09/23 03:48:32;;;;;;;;;;;;;;;14.39;84.70;100359.78;4226378;28;19932;-73
2023/09/23 03:50:36;;;;;;;;;;;;;;;14.38;84.58;100363.53;4228011;28;20023;-73
2023/09/23 03:52:38;;;;;;;;;;;;;;;14.40;84.47;100366.88;4226270;28;20030;-72
2023/09/23 03:54:40;;;;;;;;;;;;;;;14.39;84.60;100360.59;4228215;28;20022;-74
2023/09/23 03:56:42;;;;;;;;;;;;;;;14.37;84.48;100368.13;4219170;28;20104;-72
2023/09/23 03:58:43;;;;;;;;;;;;;;;14.38;84.41;100364.34;4228142;28;20019;-72
2023/09/23 04:00:45;;;;;;;;;;;;;;;14.36;84.61;100374.59;4218256;28;20035;-73
2023/09/23 04:02:47;;;;;;;;;;;;;;;14.35;84.35;100377.53;4224566;28;20023;-73
2023/09/23 04:04:49;;;;;;;;;;;;;;;14.35;84.25;100386.50;4227213;28;20018;-72
2023/09/23 04:06:53;;;;;;;;;;;;;;;14.33;84.43;100387.78;4226637;28;20461;-73
2023/09/23 04:08:58;;;;;;;;;;;;;;;14.36;84.00;100393.63;4226623;28;20011;-73
2023/09/23 04:11:02;;;;;;;;;;;;;;;14.32;84.16;100389.66;4228203;28;20023;-73
2023/09/23 04:13:04;;;;;;;;;;;;;;;14.34;84.34;100386.72;4227921;28;20018;-73
2023/09/23 04:15:08;;;;;;;;;;;;;;;14.33;84.12;100394.03;4228379;28;20023;-73
2023/09/23 04:17:10;;;;;;;;;;;;;;;14.34;84.04;100397.59;4227538;28;20026;-73
2023/09/23 04:19:12;;;;;;;;;;;;;;;14.29;83.88;100400.09;4227580;28;20038;-73
2023/09/23 04:21:17;;;;;;;;;;;;;;;14.29;83.91;100400.09;4227497;28;20014;-73
2023/09/23 04:23:20;;;;;;;;;;;;;;;14.26;84.07;100406.78;4227064;28;20014;-73
2023/09/23 04:25:22;;;;;;;;;;;;;;;14.19;84.47;100395.09;4227379;28;20014;-72
2023/09/23 04:27:26;;;;;;;;;;;;;;;14.17;84.33;100405.31;4228164;28;20067;-74
2023/09/23 04:29:30;;;;;;;;;;;;;;;14.18;84.40;100415.16;4226935;28;19938;-73
2023/09/23 04:31:32;;;;;;;;;;;;;;;14.18;84.26;100423.31;4225363;28;20010;-74
2023/09/23 04:33:34;;;;;;;;;;;;;;;14.14;84.27;100422.06;4227540;28;20014;-73
2023/09/23 04:35:36;;;;;;;;;;;;;;;14.12;84.40;100424.13;4227423;28;20046;-73
2023/09/23 04:37:37;;;;;;;;;;;;;;;14.09;84.16;100429.97;4228298;28;20347;-73
2023/09/23 04:39:41;;;;;;;;;;;;;;;14.09;84.57;100438.97;4227480;28;19934;-73
2023/09/23 04:41:43;;;;;;;;;;;;;;;14.09;84.43;100436.25;4227654;28;20022;-73
2023/09/23 04:43:45;;;;;;;;;;;;;;;14.09;84.28;100441.69;4228108;28;20027;-74
2023/09/23 04:45:47;;;;;;;;;;;;;;;14.06;84.37;100440.22;4226035;28;20014;-73
2023/09/23 04:47:50;;;;;;;;;;;;;;;14.03;84.15;100435.19;4226492;28;20022;-72
2023/09/23 04:49:53;;;;;;;;;;;;;;;13.98;84.48;100432.28;4226998;28;20452;-73
2023/09/23 04:51:56;;;;;;;;;;;;;;;13.96;84.62;100437.06;4227378;28;20372;-73
2023/09/23 04:53:58;;;;;;;;;;;;;;;13.96;84.38;100442.50;4218734;28;20459;-73
2023/09/23 04:56:06;;;;;;;;;;;;;;;13.92;84.54;100441.25;4228004;28;20011;-73
2023/09/23 04:58:11;;;;;;;;;;;;;;;13.94;84.32;100449.19;4226128;28;20010;-73
2023/09/23 05:00:20;;;;;;;;;;;;;;;13.89;84.29;100460.66;4226105;28;20027;-73
2023/09/23 05:02:22;;;;;;;;;;;;;;;13.91;84.51;100458.56;4226422;28;20031;-73
2023/09/23 05:04:24;;;;;;;;;;;;;;;13.92;84.36;100460.25;4227056;28;20090;-73
2023/09/23 05:06:26;;;;;;;;;;;;;;;13.92;84.54;100471.13;4227448;28;20071;-73
2023/09/23 05:08:28;;;;;;;;;;;;;;;13.87;84.24;100473.59;4227680;28;20027;-73
2023/09/23 05:10:30;;;;;;;;;;;;;;;13.85;84.26;100478.41;4227759;28;19928;-73
2023/09/23 05:12:33;;;;;;;;;;;;;;;13.84;84.48;100480.28;4227067;28;20018;-73
2023/09/23 05:14:35;;;;;;;;;;;;;;;13.84;84.32;100474.84;4227020;28;20015;-73
2023/09/23 05:16:37;;;;;;;;;;;;;;;13.84;84.25;100479.41;4227328;28;20445;-73
2023/09/23 05:18:40;;;;;;;;;;;;;;;13.84;84.10;100477.56;4226999;28;20429;-74
2023/09/23 05:20:47;;;;;;;;;;;;;;;13.85;84.25;100479.22;4227208;28;20462;-73
2023/09/23 05:22:48;;;;;;;;;;;;;;;13.85;84.38;100484.66;4227515;28;20046;-73
2023/09/23 05:24:56;;;;;;;;;;;;;;;13.82;83.79;100492.38;4228957;28;20019;-73
2023/09/23 05:26:59;;;;;;;;;;;;;;;13.78;83.96;100496.56;4222063;28;20362;-73
2023/09/23 05:29:03;;;;;;;;;;;;;;;13.78;84.28;100499.28;4230052;28;20019;-73
2023/09/23 05:31:05;;;;;;;;;;;;;;;13.77;84.04;100513.88;4229515;28;20441;-73
2023/09/23 05:33:08;;;;;;;;;;;;;;;13.72;84.39;100505.50;4229837;28;20035;-73
2023/09/23 05:35:10;;;;;;;;;;;;;;;13.72;84.52;100513.66;4230639;28;20027;-73
2023/09/23 05:37:12;;;;;;;;;;;;;;;13.70;84.36;100514.69;4229899;28;20023;-73
2023/09/23 05:39:15;;;;;;;;;;;;;;;13.67;84.27;100512.38;4230194;27;20011;-73
2023/09/23 05:41:16;;;;;;;;;;;;;;;13.67;84.27;100525.94;4229393;28;20018;-73
2023/09/23 05:43:18;;;;;;;;;;;;;;;13.65;84.38;100533.47;4229478;28;20018;-73
2023/09/23 05:45:23;;;;;;;;;;;;;;;13.70;84.26;100549.13;4230386;28;20023;-73
2023/09/23 05:47:25;;;;;;;;;;;;;;;13.69;84.10;100553.72;4230740;28;20018;-73
2023/09/23 05:49:27;;;;;;;;;;;;;;;13.69;84.11;100551.00;4229743;28;20034;-73
2023/09/23 05:51:29;;;;;;;;;;;;;;;13.73;84.03;100553.31;4226848;28;19928;-73
2023/09/23 05:53:32;;;;;;;;;;;;;;;13.73;83.92;100548.75;4230377;27;20372;-73
2023/09/23 05:55:34;;;;;;;;;;;;;;;13.72;83.66;100554.38;4230528;28;20059;-73
2023/09/23 05:57:38;;;;;;;;;;;;;;;13.67;83.87;100549.53;4230075;28;20022;-73
2023/09/23 05:59:40;;;;;;;;;;;;;;;13.70;83.86;100558.09;4229810;28;20031;-73
2023/09/23 06:01:43;;;;;;;;;;;;;;;13.70;83.89;100563.53;4228979;28;20019;-73
2023/09/23 06:03:45;;;;;;;;;;;;;;;13.70;83.78;100554.56;4228799;28;20014;-73
2023/09/23 06:05:46;;;;;;;;;;;;;;;13.69;83.67;100561.84;4230050;28;20018;-73
2023/09/23 06:07:49;;;;;;;;;;;;;;;13.71;83.73;100558.94;4229761;28;20440;-72
2023/09/23 06:09:50;;;;;;;;;;;;;;;13.69;83.59;100558.31;4229714;28;20640;-72
2023/09/23 06:11:54;;;;;;;;;;;;;;;13.72;83.63;100554.38;4229808;28;19928;-73
2023/09/23 06:13:59;;;;;;;;;;;;;;;13.72;83.50;100567.94;4229375;28;20015;-71
2023/09/23 06:16:02;;;;;;;;;;;;;;;13.73;83.55;100562.31;4229924;28;20023;-71
2023/09/23 06:18:06;;;;;;;;;;;;;;;13.67;83.72;100572.09;4230299;28;20059;-72
2023/09/23 06:20:09;;;;;;;;;;;;;;;13.68;83.44;100562.91;4229372;28;20436;-72
2023/09/23 06:22:10;;;;;;;;;;;;;;;13.70;83.51;100570.84;4229373;28;20022;-71
2023/09/23 06:24:12;;;;;;;;;;;;;;;13.69;83.33;100575.41;4229308;28;19982;-71
2023/09/23 06:26:14;;;;;;;;;;;;;;;13.70;83.43;100587.13;4228621;28;20011;-72
2023/09/23 06:28:16;;;;;;;;;;;;;;;13.69;83.40;100593.59;4229442;28;20440;-70
2023/09/23 06:30:18;;;;;;;;;;;;;;;13.69;83.19;100590.88;4226482;28;20032;-72
2023/09/23 06:32:19;;;;;;;;;;;;;;;13.70;83.43;100587.13;4219378;28;19932;-71
2023/09/23 06:34:23;;;;;;;;;;;;;;;13.68;83.18;100581.91;4228572;28;20007;-72
2023/09/23 06:36:25;;;;;;;;;;;;;;;13.68;83.36;100591.91;4228008;28;20460;-71
2023/09/23 06:38:28;;;;;;;;;;;;;;;13.70;83.37;100587.13;4228942;28;20583;-71
2023/09/23 06:40:30;;;;;;;;;;;;;;;13.74;83.43;100590.28;4228928;28;20477;-71
2023/09/23 06:42:32;;;;;;;;;;;;;;;13.74;82.93;100591.09;4229681;28;20054;-72
2023/09/23 06:44:34;;;;;;;;;;;;;;;13.75;83.13;100603.66;4229615;28;20357;-71
2023/09/23 06:46:36;;;;;;;;;;;;;;;13.78;83.04;100605.97;4229371;28;20557;-73
2023/09/23 06:48:38;;;;;;;;;;;;;;;13.81;82.69;100615.59;4229306;28;20038;-71
2023/09/23 06:50:41;;;;;;;;;;;;;;;13.81;82.60;100612.88;4227667;28;20011;-70
2023/09/23 06:52:43;;;;;;;;;;;;;;;13.81;82.53;100619.13;4226360;28;20354;-71
2023/09/23 06:54:45;;;;;;;;;;;;;;;13.83;82.38;100618.94;4228510;28;20417;-71
2023/09/23 06:56:47;;;;;;;;;;;;;;;13.86;82.32;100615.81;4220508;28;20481;-71
2023/09/23 06:58:49;;;;;;;;;;;;;;;13.88;82.11;100624.59;4228419;28;20042;-72
2023/09/23 07:00:51;;;;;;;;;;;;;;;13.90;81.80;100624.38;4227336;28;20010;-71
2023/09/23 07:02:53;;;;;;;;;;;;;;;13.95;81.93;100632.75;4227736;28;20035;-72
2023/09/23 07:04:55;;;;;;;;;;;;;;;13.96;81.66;100637.16;4229061;28;20467;-71
2023/09/23 07:06:58;;;;;;;;;;;;;;;14.00;81.51;100633.84;4228018;28;19951;-70
2023/09/23 07:09:00;;;;;;;;;;;;;;;14.03;81.44;100638.84;4228808;28;20022;-70
2023/09/23 07:11:02;;;;;;;;;;;;;;;14.08;80.86;100642.84;4228075;28;20014;-71
2023/09/23 07:13:05;;;;;;;;;;;;;;;14.12;80.99;100647.69;4228732;28;19923;-72
2023/09/23 07:15:07;;;;;;;;;;;;;;;14.17;80.90;100657.91;4227142;28;20407;-71
2023/09/23 07:17:09;;;;;;;;;;;;;;;14.18;80.33;100656.88;4228888;28;19963;-71
2023/09/23 07:19:11;;;;;;;;;;;;;;;14.21;80.11;100661.91;4228244;28;20014;-72
2023/09/23 07:21:13;;;;;;;;;;;;;;;14.26;80.08;100672.16;4226373;28;20023;-72
2023/09/23 07:23:17;;;;;;;;;;;;;;;14.28;79.10;100679.09;4228116;28;20372;-72
2023/09/23 07:25:19;;;;;;;;;;;;;;;14.32;78.42;100665.91;4228061;28;20015;-71
2023/09/23 07:27:21;;;;;;;;;;;;;;;14.36;78.86;100667.19;4218503;28;20028;-71
2023/09/23 07:29:23;;;;;;;;;;;;;;;14.38;77.78;100655.06;4228254;28;20034;-72
2023/09/23 07:31:25;;;;;;;;;;;;;;;14.42;78.02;100661.78;4224424;28;20372;-69
2023/09/23 07:33:27;;;;;;;;;;;;;;;14.44;77.59;100667.00;4209275;28;20397;-69
2023/09/23 07:35:32;;;;;;;;;;;;;;;14.47;77.22;100671.22;4226204;28;20032;-70
2023/09/23 07:37:35;;;;;;;;;;;;;;;14.50;76.43;100676.19;4227431;28;20437;-70
2023/09/23 07:39:39;;;;;;;;;;;;;;;14.50;76.81;100678.91;4227341;28;20020;-71
2023/09/23 07:41:41;;;;;;;;;;;;;;;14.52;77.03;100674.97;4228377;28;20018;-72
2023/09/23 07:43:43;;;;;;;;;;;;;;;14.55;77.10;100680.00;4227655;28;20023;-72
2023/09/23 07:45:45;;;;;;;;;;;;;;;14.59;76.83;100686.72;4227113;28;20433;-72
2023/09/23 07:47:47;;;;;;;;;;;;;;;14.62;76.38;100685.47;4226752;28;20437;-71
2023/09/23 07:49:51;;;;;;;;;;;;;;;14.65;76.51;100681.50;4226675;28;20012;-70
2023/09/23 07:51:56;;;;;;;;;;;;;;;14.69;76.15;100680.06;4227373;28;20014;-71
2023/09/23 07:53:58;;;;;;;;;;;;;;;14.74;75.93;100686.56;4226865;28;19924;-72
2023/09/23 07:56:02;;;;;;;;;;;;;;;14.79;75.84;100683.22;4226290;28;20011;-72
2023/09/23 07:58:04;;;;;;;;;;;;;;;14.83;75.19;100695.38;4216314;28;20007;-71
2023/09/23 08:00:08;;;;;;;;;;;;;;;14.86;74.93;100697.66;4224118;28;20022;-69
2023/09/23 08:02:16;;;;;;;;;;;;;;;14.89;75.13;100696.41;4226152;28;19923;-72
2023/09/23 08:04:18;;;;;;;;;;;;;;;14.93;74.84;100694.97;4227482;28;20011;-69
2023/09/23 08:06:20;;;;;;;;;;;;;;;14.98;74.93;100721.53;4227161;28;20350;-72
2023/09/23 08:08:23;;;;;;;;;;;;;;;15.02;73.97;100701.88;4227795;28;20006;-72
2023/09/23 08:10:25;;;;;;;;;;;;;;;15.05;73.75;100698.75;4228515;28;20429;-72
2023/09/23 08:12:28;;;;;;;;;;;;;;;15.11;73.77;100697.09;4229048;28;20573;-72
2023/09/23 08:14:30;;;;;;;;;;;;;;;15.17;73.75;100698.13;4228585;28;20424;-71
2023/09/23 08:16:34;;;;;;;;;;;;;;;15.23;73.31;100697.28;4228626;28;20018;-71
2023/09/23 08:18:36;;;;;;;;;;;;;;;15.27;72.96;100707.53;4228222;28;20022;-70
2023/09/23 08:20:39;;;;;;;;;;;;;;;15.34;72.60;100709.44;4227494;28;20014;-71
2023/09/23 08:22:41;;;;;;;;;;;;;;;15.37;71.55;100720.72;4228038;28;20027;-70
2023/09/23 08:24:48;;;;;;;;;;;;;;;15.43;71.36;100729.94;4228657;28;19924;-72
2023/09/23 08:26:50;;;;;;;;;;;;;;;15.48;71.13;100727.41;4228695;28;20006;-71
2023/09/23 08:28:54;;;;;;;;;;;;;;;15.53;70.98;100738.50;4228259;28;20019;-71
2023/09/23 08:30:55;;;;;;;;;;;;;;;15.59;70.92;100729.50;4227768;28;20022;-73
2023/09/23 08:32:57;;;;;;;;;;;;;;;15.65;70.66;100746.91;4227220;28;20026;-71
2023/09/23 08:34:59;;;;;;;;;;;;;;;15.71;69.91;100729.72;4229075;28;20378;-72
2023/09/23 08:37:01;;;;;;;;;;;;;;;15.74;68.82;100742.09;4217973;28;20356;-70
2023/09/23 08:39:07;;;;;;;;;;;;;;;15.76;68.68;100746.25;4227453;28;20011;-71
2023/09/23 08:41:09;;;;;;;;;;;;;;;15.80;68.86;100750.28;4227799;28;20441;-72
2023/09/23 08:43:12;;;;;;;;;;;;;;;15.84;68.49;100758.84;4228622;28;20022;-73
2023/09/23 08:45:16;;;;;;;;;;;;;;;15.85;67.78;100760.53;4228303;28;20063;-72
2023/09/23 08:47:18;;;;;;;;;;;;;;;15.90;67.82;100768.88;4228305;28;20031;-71
2023/09/23 08:49:21;;;;;;;;;;;;;;;15.93;67.47;100775.81;4227847;28;20018;-72
2023/09/23 08:51:24;;;;;;;;;;;;;;;15.96;67.32;100780.84;4226776;28;20058;-72
2023/09/23 08:53:27;;;;;;;;;;;;;;;15.94;66.85;100764.72;4227305;28;20030;-72
2023/09/23 08:55:29;;;;;;;;;;;;;;;15.95;67.16;100773.72;4226738;28;20337;-74
2023/09/23 08:57:32;;;;;;;;;;;;;;;15.96;67.27;100789.00;4224614;28;20019;-72
2023/09/23 08:59:34;;;;;;;;;;;;;;;15.96;67.16;100789.00;4226914;28;20015;-72
2023/09/23 09:01:47;;;;;;;;;;;;;;;15.96;66.73;100791.72;4230141;28;20007;-72
2023/09/23 09:03:49;;;;;;;;;;;;;;;15.95;66.33;100788.16;4230225;28;20022;-71
2023/09/23 09:05:51;;;;;;;;;;;;;;;15.96;66.48;100806.19;4221440;28;20027;-72
2023/09/23 09:07:53;;;;;;;;;;;;;;;15.96;66.56;100808.91;4230583;28;20011;-72
2023/09/23 09:09:55;;;;;;;;;;;;;;;15.94;66.02;100819.19;4230755;28;20022;-71
2023/09/23 09:11:58;;;;;;;;;;;;;;;15.90;65.62;100807.03;4230966;28;20022;-71
2023/09/23 09:14:03;;;;;;;;;;;;;;;15.88;65.68;100811.00;4230933;28;19980;-73
2023/09/23 09:16:06;;;;;;;;;;;;;;;15.86;65.84;100816.66;4229959;28;19924;-73
2023/09/23 09:18:09;;;;;;;;;;;;;;;15.83;65.62;100820.66;4231164;28;19959;-72
2023/09/23 09:20:12;;;;;;;;;;;;;;;15.82;65.86;100821.69;4229867;28;20441;-73
2023/09/23 09:22:16;;;;;;;;;;;;;;;15.81;65.78;100828.16;4228636;28;20552;-72
2023/09/23 09:24:18;;;;;;;;;;;;;;;15.78;65.81;100830.47;4230893;28;20378;-73
2023/09/23 09:26:21;;;;;;;;;;;;;;;15.77;65.65;100828.84;4230269;28;20390;-72
2023/09/23 09:28:24;;;;;;;;;;;;;;;15.76;65.89;100830.66;4229772;28;20039;-71
2023/09/23 09:30:26;;;;;;;;;;;;;;;15.77;66.26;100826.09;4228697;28;20313;-72
2023/09/23 09:32:29;;;;;;;;;;;;;;;15.76;66.29;100836.09;4229820;28;20361;-71
2023/09/23 09:34:34;;;;;;;;;;;;;;;15.77;66.33;100835.09;4230194;28;20032;-71
2023/09/23 09:36:36;;;;;;;;;;;;;;;15.78;65.98;100828.63;4229790;28;20826;-72
2023/09/23 09:38:39;;;;;;;;;;;;;;;15.78;65.89;100820.44;4230247;28;20022;-71
2023/09/23 09:40:41;;;;;;;;;;;;;;;15.81;66.35;100825.44;4229729;28;20097;-71
2023/09/23 09:42:44;;;;;;;;;;;;;;;15.84;66.04;100824.19;4229862;28;20011;-72
2023/09/23 09:44:46;;;;;;;;;;;;;;;15.88;66.05;100814.56;4221280;28;20405;-72
2023/09/23 09:46:50;;;;;;;;;;;;;;;15.90;66.03;100812.47;4236762;27;20450;-73
2023/09/23 09:48:52;;;;;;;;;;;;;;;15.93;65.84;100830.28;4228673;28;20347;-71
2023/09/23 09:50:55;;;;;;;;;;;;;;;15.94;65.63;100837.38;4229828;28;20014;-73
2023/09/23 09:52:57;;;;;;;;;;;;;;;15.95;65.27;100828.19;4230051;28;20381;-74
2023/09/23 09:55:01;;;;;;;;;;;;;;;15.95;65.17;100831.72;4229258;28;20368;-73
2023/09/23 09:57:07;;;;;;;;;;;;;;;15.96;65.19;100832.59;4230662;28;19928;-73
2023/09/23 09:59:09;;;;;;;;;;;;;;;15.98;65.54;100838.66;4230406;28;20026;-73
2023/09/23 10:01:13;;;;;;;;;;;;;;;15.99;65.41;100843.91;4227725;28;20018;-73
2023/09/23 10:03:14;;;;;;;;;;;;;;;15.99;65.17;100846.63;4229665;28;20019;-73
2023/09/23 10:05:17;;;;;;;;;;;;;;;15.98;64.65;100836.75;4229228;28;20026;-73
2023/09/23 10:07:22;;;;;;;;;;;;;;;15.97;64.93;100848.72;4229847;28;20026;-72
2023/09/23 10:09:27;;;;;;;;;;;;;;;15.98;65.22;100839.50;4229368;28;20023;-71
2023/09/23 10:11:29;;;;;;;;;;;;;;;15.97;65.20;100837.81;4229693;28;20014;-74
2023/09/23 10:13:32;;;;;;;;;;;;;;;15.99;65.33;100843.91;4229938;28;20022;-73
2023/09/23 10:15:37;;;;;;;;;;;;;;;16.06;65.64;100837.59;4211917;28;19928;-70
2023/09/23 10:17:43;;;;;;;;;;;;;;;16.08;65.67;100839.09;4225990;28;19924;-71
2023/09/23 10:19:49;;;;;;;;;;;;;;;16.16;65.89;100840.72;4226470;28;20017;-72
2023/09/23 10:21:59;;;;;;;;;;;;;;;16.24;65.89;100858.75;4226855;28;19946;-74
2023/09/23 10:24:08;;;;;;;;;;;;;;;16.27;65.48;100851.00;4226103;28;19929;-76
2023/09/23 10:26:14;;;;;;;;;;;;;;;16.29;64.87;100848.88;4228045;28;20027;-74
2023/09/23 10:28:28;;;;;;;;;;;;;;;16.28;64.90;100843.66;4227246;28;20039;-74
2023/09/23 10:30:33;;;;;;;;;;;;;;;16.29;64.95;100851.63;4224143;28;20390;-76